createdAt,value
2019-04-06T00:02:12.715Z,16.35
2019-04-06T00:04:42.434Z,17.65
2019-04-06T00:07:12.185Z,17.15
2019-04-06T00:09:41.849Z,18.52
2019-04-06T00:12:11.596Z,16.97
2019-04-06T00:14:41.369Z,16.52
2019-04-06T00:17:11.116Z,17.15
2019-04-06T00:19:40.815Z,16.07
2019-04-06T00:22:10.499Z,17.65
2019-04-06T00:24:40.178Z,17.80
2019-04-06T00:27:09.906Z,19.40
2019-04-06T00:29:39.642Z,17.35
2019-04-06T00:32:17.466Z,16.75
2019-04-06T00:34:47.104Z,17.30
2019-04-06T00:37:16.944Z,16.60
2019-04-06T00:39:46.803Z,17.10
2019-04-06T00:42:16.495Z,18.27
2019-04-06T00:44:46.196Z,16.42
2019-04-06T00:47:15.975Z,18.65
2019-04-06T00:49:45.722Z,19.42
2019-04-06T00:52:15.405Z,16.10
2019-04-06T00:54:45.092Z,18.52
2019-04-06T00:57:14.837Z,18.42
2019-04-06T00:59:44.587Z,17.67
2019-04-06T01:02:14.217Z,18.15
2019-04-06T01:04:43.991Z,18.00
2019-04-06T01:07:13.668Z,20.57
2019-04-06T01:09:43.351Z,19.62
2019-04-06T01:12:13.070Z,19.42
2019-04-06T01:14:42.871Z,19.55
2019-04-06T01:17:12.607Z,18.95
2019-04-06T01:19:42.725Z,19.60
2019-04-06T01:22:12.527Z,19.52
2019-04-06T01:24:42.311Z,19.07
2019-04-06T01:27:11.988Z,19.65
2019-04-06T01:29:41.721Z,21.45
2019-04-06T01:32:11.380Z,18.82
2019-04-06T01:34:41.114Z,17.92
2019-04-06T01:37:10.773Z,20.05
2019-04-06T01:39:40.580Z,20.40
2019-04-06T01:42:10.276Z,21.93
2019-04-06T01:44:40.048Z,20.88
2019-04-06T01:47:09.766Z,19.60
2019-04-06T01:49:39.581Z,18.75
2019-04-06T01:52:09.233Z,19.87
2019-04-06T01:54:39.059Z,22.98
2019-04-06T01:57:08.763Z,19.45
2019-04-06T01:59:38.532Z,20.05
2019-04-06T02:02:12.918Z,21.27
2019-04-06T02:04:42.706Z,20.12
2019-04-06T02:07:12.378Z,23.47
2019-04-06T02:09:42.108Z,20.55
2019-04-06T02:12:11.808Z,20.50
2019-04-06T02:14:41.639Z,21.40
2019-04-06T02:17:11.292Z,21.65
2019-04-06T02:19:40.983Z,22.10
2019-04-06T02:22:10.745Z,21.00
2019-04-06T02:24:40.463Z,20.52
2019-04-06T02:27:13.156Z,21.23
2019-04-06T02:29:42.872Z,21.68
2019-04-06T02:32:31.500Z,21.23
2019-04-06T02:35:33.150Z,21.20
2019-04-06T02:38:21.835Z,21.30
2019-04-06T02:41:19.959Z,20.32
2019-04-06T02:43:49.748Z,22.67
2019-04-06T02:46:19.556Z,22.25
2019-04-06T02:48:49.257Z,21.57
2019-04-06T02:51:20.295Z,22.42
2019-04-06T02:53:49.953Z,23.22
2019-04-06T02:56:19.698Z,21.73
2019-04-06T02:58:49.604Z,22.32
2019-04-06T03:01:19.292Z,21.30
2019-04-06T03:03:49.239Z,24.57
2019-04-06T03:06:19.141Z,22.35
2019-04-06T03:08:48.961Z,21.52
2019-04-06T03:11:18.770Z,22.58
2019-04-06T03:13:48.426Z,23.10
2019-04-06T03:16:18.126Z,23.05
2019-04-06T03:18:47.770Z,23.25
2019-04-06T03:21:17.491Z,21.95
2019-04-06T03:23:51.484Z,24.20
2019-04-06T03:26:18.505Z,22.35
2019-04-06T03:28:48.242Z,21.37
2019-04-06T03:31:22.740Z,21.65
2019-04-06T03:33:49.264Z,21.70
2019-04-06T03:36:18.987Z,22.65
2019-04-06T03:38:48.653Z,23.15
2019-04-06T03:41:18.587Z,22.15
2019-04-06T03:43:48.347Z,22.90
2019-04-06T03:46:18.029Z,22.80
2019-04-06T03:48:47.706Z,22.42
2019-04-06T03:51:17.551Z,22.07
2019-04-06T03:53:47.321Z,20.70
2019-04-06T03:56:17.089Z,22.80
2019-04-06T03:58:46.731Z,23.20
2019-04-06T04:01:16.451Z,22.17
2019-04-06T04:03:46.114Z,22.00
2019-04-06T04:06:15.916Z,23.65
2019-04-06T04:08:45.599Z,23.05
2019-04-06T04:11:15.429Z,25.45
2019-04-06T04:13:45.060Z,22.05
2019-04-06T04:16:14.757Z,22.32
2019-04-06T04:18:44.569Z,22.87
2019-04-06T04:21:14.369Z,22.58
2019-04-06T04:23:44.036Z,22.75
2019-04-06T04:26:13.726Z,23.47
2019-04-06T04:28:43.586Z,20.82
2019-04-06T04:31:13.440Z,21.05
2019-04-06T04:33:43.096Z,25.37
2019-04-06T04:36:12.813Z,23.32
2019-04-06T04:38:42.466Z,22.75
2019-04-06T04:41:12.142Z,21.48
2019-04-06T04:43:42.142Z,25.17
2019-04-06T04:46:11.958Z,23.15
2019-04-06T04:48:41.628Z,23.22
2019-04-06T04:51:11.360Z,21.87
2019-04-06T04:53:41.018Z,21.93
2019-04-06T04:56:10.671Z,22.75
2019-04-06T04:58:40.303Z,22.13
2019-04-06T05:01:10.039Z,22.02
2019-04-06T05:03:39.691Z,22.15
2019-04-06T05:06:09.367Z,24.30
2019-04-06T05:08:39.101Z,22.00
2019-04-06T05:11:08.912Z,22.02
2019-04-06T05:13:38.585Z,21.62
2019-04-06T05:16:12.584Z,22.22
2019-04-06T05:18:42.657Z,20.88
2019-04-06T05:21:13.883Z,21.52
2019-04-06T05:23:43.707Z,22.20
2019-04-06T05:26:13.358Z,20.32
2019-04-06T05:28:43.079Z,20.50
2019-04-06T05:31:12.834Z,21.55
2019-04-06T05:33:42.601Z,20.08
2019-04-06T05:36:14.104Z,22.45
2019-04-06T05:38:43.780Z,19.77
2019-04-06T05:41:13.429Z,20.65
2019-04-06T05:43:43.183Z,22.65
2019-04-06T05:46:12.877Z,20.97
2019-04-06T05:48:42.804Z,20.05
2019-04-06T05:51:12.538Z,18.65
2019-04-06T05:53:42.239Z,22.42
2019-04-06T05:56:11.931Z,19.42
2019-04-06T05:58:44.142Z,21.20
2019-04-06T06:01:13.077Z,19.92
2019-04-06T06:03:42.823Z,22.55
2019-04-06T06:06:13.101Z,20.00
2019-04-06T06:08:43.300Z,19.65
2019-04-06T06:11:14.074Z,18.80
2019-04-06T06:13:43.750Z,21.33
2019-04-06T06:16:13.462Z,20.90
2019-04-06T06:18:43.164Z,19.57
2019-04-06T06:21:12.923Z,17.92
2019-04-06T06:23:44.960Z,19.70
2019-04-06T06:26:14.747Z,19.55
2019-04-06T06:28:44.486Z,20.05
2019-04-06T06:31:14.172Z,19.67
2019-04-06T06:33:43.926Z,19.92
2019-04-06T06:36:14.659Z,20.62
2019-04-06T06:38:44.389Z,18.67
2019-04-06T06:41:15.496Z,20.72
2019-04-06T06:43:45.534Z,19.20
2019-04-06T06:46:15.419Z,19.37
2019-04-06T06:48:45.325Z,19.45
2019-04-06T06:51:14.957Z,20.40
2019-04-06T06:53:44.750Z,20.05
2019-04-06T06:56:14.455Z,19.55
2019-04-06T06:58:44.203Z,20.12
2019-04-06T07:01:14.006Z,19.62
2019-04-06T07:03:43.850Z,20.02
2019-04-06T07:06:13.769Z,20.37
2019-04-06T07:08:43.519Z,20.60
2019-04-06T07:11:13.345Z,19.07
2019-04-06T07:13:43.270Z,19.67
2019-04-06T07:16:13.115Z,19.12
2019-04-06T07:18:42.948Z,20.20
2019-04-06T07:21:12.717Z,20.25
2019-04-06T07:23:42.409Z,21.23
2019-04-06T07:26:12.302Z,19.67
2019-04-06T07:28:42.007Z,21.60
2019-04-06T07:31:11.674Z,20.08
2019-04-06T07:33:41.386Z,20.77
2019-04-06T07:36:11.055Z,19.20
2019-04-06T07:38:40.801Z,21.02
2019-04-06T07:41:10.479Z,20.62
2019-04-06T07:43:40.244Z,19.67
2019-04-06T07:46:09.917Z,19.70
2019-04-06T07:48:40.023Z,19.65
2019-04-06T07:51:12.088Z,19.52
2019-04-06T07:53:42.104Z,20.35
2019-04-06T07:56:11.746Z,20.90
2019-04-06T07:58:48.633Z,18.67
2019-04-06T08:01:12.839Z,18.65
2019-04-06T08:03:42.616Z,19.62
2019-04-06T08:06:12.535Z,20.97
2019-04-06T08:08:42.474Z,20.25
2019-04-06T08:11:13.287Z,19.32
2019-04-06T08:13:42.995Z,19.50
2019-04-06T08:16:12.644Z,18.35
2019-04-06T08:18:42.627Z,19.70
2019-04-06T08:21:12.574Z,21.68
2019-04-06T08:23:42.407Z,22.17
2019-04-06T08:26:12.128Z,22.65
2019-04-06T08:28:41.929Z,19.48
2019-04-06T08:31:11.808Z,19.87
2019-04-06T08:33:41.606Z,19.80
2019-04-06T08:36:11.285Z,20.43
2019-04-06T08:38:41.042Z,20.80
2019-04-06T08:41:10.784Z,20.23
2019-04-06T08:43:40.491Z,20.40
2019-04-06T08:46:10.151Z,21.45
2019-04-06T08:48:39.862Z,20.75
2019-04-06T08:51:09.567Z,20.88
2019-04-06T08:53:39.239Z,20.77
2019-04-06T08:56:08.955Z,20.95
2019-04-06T08:58:38.660Z,20.92
2019-04-06T09:01:08.845Z,21.12
2019-04-06T09:03:38.524Z,19.57
2019-04-06T09:06:08.214Z,22.37
2019-04-06T09:08:37.931Z,21.10
2019-04-06T09:11:07.614Z,20.70
2019-04-06T09:13:39.890Z,21.27
2019-04-06T09:16:08.614Z,22.00
2019-04-06T09:18:38.279Z,22.30
2019-04-06T09:21:08.063Z,21.10
2019-04-06T09:23:38.226Z,20.75
2019-04-06T09:26:07.946Z,21.62
2019-04-06T09:28:37.689Z,22.42
2019-04-06T09:31:07.511Z,23.20
2019-04-06T09:33:37.170Z,23.20
2019-04-06T09:36:06.886Z,21.93
2019-04-06T09:38:36.548Z,22.42
2019-04-06T09:41:06.333Z,23.10
2019-04-06T09:43:38.748Z,23.25
2019-04-06T09:46:28.194Z,23.40
2019-04-06T09:49:23.018Z,21.62
2019-04-06T09:52:17.463Z,23.20
2019-04-06T09:54:53.129Z,22.40
2019-04-06T09:57:32.651Z,23.15
2019-04-06T10:00:08.429Z,23.02
2019-04-06T10:03:03.177Z,23.62
2019-04-06T10:05:52.111Z,22.85
2019-04-06T10:08:53.114Z,22.10
2019-04-06T10:11:40.737Z,21.80
2019-04-06T10:14:38.450Z,23.18
2019-04-06T10:17:39.271Z,23.00
2019-04-06T10:20:29.987Z,23.07
2019-04-06T10:23:24.620Z,21.97
2019-04-06T10:26:08.074Z,23.38
2019-04-06T10:28:55.469Z,22.75
2019-04-06T10:31:47.343Z,22.17
2019-04-06T10:34:48.423Z,22.95
2019-04-06T10:37:55.335Z,21.90
2019-04-06T10:40:34.730Z,21.62
2019-04-06T10:43:16.051Z,21.60
2019-04-06T10:46:07.363Z,21.20
2019-04-06T10:48:55.130Z,21.68
2019-04-06T10:51:42.140Z,21.27
2019-04-06T10:54:33.535Z,22.77
2019-04-06T10:57:28.002Z,21.70
2019-04-06T11:00:09.579Z,20.60
2019-04-06T11:02:56.847Z,22.58
2019-04-06T11:05:35.676Z,20.23
2019-04-06T11:08:20.015Z,21.35
2019-04-06T11:11:02.809Z,21.07
2019-04-06T11:13:52.008Z,21.62
2019-04-06T11:16:28.150Z,22.20
2019-04-06T11:19:11.402Z,20.10
2019-04-06T11:22:05.770Z,21.55
2019-04-06T11:24:57.514Z,18.55
2019-04-06T11:27:42.371Z,19.82
2019-04-06T11:30:28.607Z,23.32
2019-04-06T11:33:35.308Z,20.17
2019-04-06T11:36:14.955Z,18.70
2019-04-06T11:39:02.542Z,19.23
2019-04-06T11:41:45.770Z,19.23
2019-04-06T11:44:21.209Z,20.43
2019-04-06T11:47:09.785Z,19.62
2019-04-06T11:49:45.235Z,20.05
2019-04-06T11:52:36.803Z,19.20
2019-04-06T11:55:28.642Z,18.07
2019-04-06T11:58:23.544Z,20.10
2019-04-06T12:01:02.964Z,18.80
2019-04-06T12:03:51.567Z,20.35
2019-04-06T12:06:29.946Z,20.40
2019-04-06T12:09:17.288Z,17.50
2019-04-06T12:12:11.747Z,18.70
2019-04-06T12:14:54.111Z,19.55
2019-04-06T12:17:45.556Z,19.98
2019-04-06T12:20:21.703Z,19.95
2019-04-06T12:23:16.423Z,17.95
2019-04-06T12:26:04.970Z,17.62
2019-04-06T12:28:56.655Z,18.87
2019-04-06T12:31:33.499Z,17.95
2019-04-06T12:34:22.421Z,18.55
2019-04-06T12:37:18.011Z,17.95
2019-04-06T12:39:54.906Z,17.48
2019-04-06T12:42:44.058Z,18.37
2019-04-06T12:45:32.990Z,18.02
2019-04-06T12:48:24.488Z,18.20
2019-04-06T12:51:13.071Z,20.00
2019-04-06T12:53:57.730Z,18.07
2019-04-06T12:56:43.542Z,18.52
2019-04-06T12:59:47.288Z,19.02
2019-04-06T13:02:34.646Z,18.92
2019-04-06T13:05:35.193Z,17.27
2019-04-06T13:08:27.057Z,19.10
2019-04-06T13:11:14.459Z,18.87
2019-04-06T13:14:09.080Z,19.17
2019-04-06T13:16:56.061Z,20.12
2019-04-06T13:19:42.159Z,19.85
2019-04-06T13:22:40.231Z,18.23
2019-04-06T13:25:24.569Z,20.70
2019-04-06T13:28:19.902Z,16.35
2019-04-06T13:31:07.335Z,16.90
2019-04-06T13:33:55.940Z,18.87
2019-04-06T13:36:44.546Z,17.90
2019-04-06T13:39:39.146Z,19.50
2019-04-06T13:42:25.636Z,17.95
2019-04-06T13:45:13.683Z,18.35
2019-04-06T13:48:02.463Z,18.90
2019-04-06T13:50:40.833Z,18.23
2019-04-06T13:53:21.381Z,19.05
2019-04-06T13:56:08.663Z,18.10
2019-04-06T13:58:47.614Z,17.92
2019-04-06T14:01:26.386Z,20.05
2019-04-06T14:04:30.071Z,19.37
2019-04-06T14:07:25.006Z,18.62
2019-04-06T14:10:25.731Z,19.60
2019-04-06T14:13:15.670Z,19.92
2019-04-06T14:16:04.526Z,18.48
2019-04-06T14:18:52.067Z,16.97
2019-04-06T14:21:41.021Z,16.90
2019-04-06T14:24:29.734Z,17.60
2019-04-06T14:27:27.521Z,16.25
2019-04-06T14:30:05.810Z,18.30
2019-04-06T14:32:54.485Z,17.10
2019-04-06T14:35:43.440Z,16.40
2019-04-06T14:38:30.677Z,17.00
2019-04-06T14:41:17.663Z,16.73
2019-04-06T14:43:56.283Z,16.42
2019-04-06T14:46:50.974Z,18.00
2019-04-06T14:49:42.345Z,16.60
2019-04-06T14:52:37.072Z,19.48
2019-04-06T14:55:25.015Z,19.10
2019-04-06T14:58:12.510Z,17.45
2019-04-06T15:01:05.567Z,17.45
2019-04-06T15:04:03.371Z,17.95
2019-04-06T15:07:08.867Z,18.62
2019-04-06T15:09:41.031Z,18.30
2019-04-06T15:12:32.718Z,18.50
2019-04-06T15:15:36.379Z,17.40
2019-04-06T15:18:34.129Z,16.60
2019-04-06T15:21:41.208Z,16.67
2019-04-06T15:24:30.214Z,14.83
2019-04-06T15:27:12.367Z,16.65
2019-04-06T15:29:51.022Z,17.98
2019-04-06T15:32:36.640Z,14.98
2019-04-06T15:35:37.589Z,15.80
2019-04-06T15:38:20.199Z,15.48
2019-04-06T15:41:08.808Z,16.27
2019-04-06T15:44:06.266Z,16.73
2019-04-06T15:46:57.834Z,18.85
2019-04-06T15:49:55.474Z,22.55
2019-04-06T15:52:34.184Z,21.52
2019-04-06T15:55:34.979Z,21.87
2019-04-06T15:58:24.836Z,21.77
2019-04-06T16:01:09.356Z,23.80
2019-04-06T16:03:57.106Z,22.67
2019-04-06T16:06:42.787Z,20.88
2019-04-06T16:09:30.518Z,23.38
2019-04-06T16:12:28.349Z,22.75
2019-04-06T16:15:08.236Z,20.10
2019-04-06T16:18:06.051Z,20.52
2019-04-06T16:20:45.003Z,24.35
2019-04-06T16:23:33.624Z,26.57
2019-04-06T16:26:31.384Z,26.07
2019-04-06T16:29:23.055Z,24.98
2019-04-06T16:32:30.949Z,28.52
2019-04-06T16:35:09.855Z,26.35
2019-04-06T16:38:04.646Z,26.37
2019-04-06T16:40:56.156Z,26.55
2019-04-06T16:43:47.826Z,25.20
2019-04-06T16:46:31.555Z,25.52
2019-04-06T16:49:13.519Z,24.00
2019-04-06T16:52:00.971Z,23.80
2019-04-06T16:54:52.380Z,22.30
2019-04-06T16:57:44.510Z,21.37
2019-04-06T17:00:25.117Z,22.30
2019-04-06T17:03:21.539Z,19.40
2019-04-06T17:06:21.874Z,18.98
2019-04-06T17:08:58.040Z,14.63
2019-04-06T17:12:02.690Z,15.43
2019-04-06T17:14:51.671Z,14.38
2019-04-06T17:17:46.267Z,13.68
2019-04-06T17:20:36.820Z,13.75
2019-04-06T17:23:14.321Z,13.00
2019-04-06T17:26:01.761Z,12.33
2019-04-06T17:28:49.198Z,9.53
2019-04-06T17:31:37.744Z,9.28
2019-04-06T17:34:16.008Z,7.55
2019-04-06T17:37:07.425Z,6.67
2019-04-06T17:39:45.553Z,9.43
2019-04-06T17:42:37.125Z,6.60
2019-04-06T17:45:19.966Z,6.15
2019-04-06T17:48:11.675Z,6.12
2019-04-06T17:51:03.220Z,7.28
2019-04-06T17:54:07.178Z,5.50
2019-04-06T17:57:01.528Z,5.30
2019-04-06T18:00:02.842Z,6.80
2019-04-06T18:02:50.212Z,5.58
2019-04-06T18:05:37.724Z,5.40
2019-04-06T18:08:44.955Z,5.15
2019-04-06T18:11:32.381Z,5.95
2019-04-06T18:14:03.137Z,6.08
2019-04-06T18:16:35.637Z,5.37
2019-04-06T18:19:05.808Z,5.22
2019-04-06T18:21:35.987Z,5.70
2019-04-06T18:24:06.745Z,5.00
2019-04-06T18:26:36.687Z,4.97
2019-04-06T18:29:06.458Z,4.70
2019-04-06T18:31:57.296Z,4.83
2019-04-06T18:34:27.831Z,7.00
2019-04-06T18:37:19.292Z,6.92
2019-04-06T18:39:49.655Z,6.25
2019-04-06T18:42:19.643Z,5.97
2019-04-06T18:44:49.839Z,7.20
2019-04-06T18:47:19.659Z,6.90
2019-04-06T18:49:49.541Z,7.08
2019-04-06T18:52:19.326Z,7.00
2019-04-06T18:54:49.483Z,6.05
2019-04-06T18:57:22.811Z,7.42
2019-04-06T18:59:53.065Z,7.72
2019-04-06T19:02:22.834Z,7.75
2019-04-06T19:04:52.991Z,8.48
2019-04-06T19:07:22.902Z,8.65
2019-04-06T19:09:52.732Z,7.65
2019-04-06T19:12:22.628Z,9.90
2019-04-06T19:14:52.443Z,8.55
2019-04-06T19:17:22.385Z,8.45
2019-04-06T19:19:52.250Z,9.80
2019-04-06T19:22:25.234Z,9.55
2019-04-06T19:24:55.399Z,9.68
2019-04-06T19:27:25.312Z,9.40
2019-04-06T19:29:55.217Z,9.15
2019-04-06T19:32:25.032Z,9.25
2019-04-06T19:34:54.828Z,11.30
2019-04-06T19:37:24.904Z,10.75
2019-04-06T19:39:55.784Z,8.88
2019-04-06T19:42:25.940Z,10.82
2019-04-06T19:44:55.750Z,10.20
2019-04-06T19:47:25.429Z,9.33
2019-04-06T19:49:55.214Z,10.72
2019-04-06T19:52:24.863Z,9.95
2019-04-06T19:54:54.585Z,10.85
2019-04-06T19:57:25.019Z,9.53
2019-04-06T19:59:55.231Z,8.28
2019-04-06T20:02:25.887Z,9.80
2019-04-06T20:04:56.408Z,9.50
2019-04-06T20:07:26.396Z,8.68
2019-04-06T20:09:56.176Z,9.60
2019-04-06T20:12:26.146Z,10.68
2019-04-06T20:14:55.947Z,9.05
2019-04-06T20:17:26.223Z,9.73
2019-04-06T20:19:56.459Z,9.10
2019-04-06T20:22:27.201Z,9.55
2019-04-06T20:24:57.569Z,8.68
2019-04-06T20:27:27.574Z,10.13
2019-04-06T20:29:57.396Z,14.23
2019-04-06T20:32:27.873Z,16.95
2019-04-06T20:34:57.732Z,20.40
2019-04-06T20:37:27.551Z,19.90
2019-04-06T20:39:57.480Z,19.37
2019-04-06T20:42:27.379Z,19.98
2019-04-06T20:44:57.274Z,16.57
2019-04-06T20:47:27.128Z,15.93
2019-04-06T20:49:56.992Z,12.93
2019-04-06T20:52:28.101Z,12.25
2019-04-06T20:54:58.095Z,11.83
2019-04-06T20:57:31.068Z,9.55
2019-04-06T21:00:02.046Z,11.53
2019-04-06T21:02:32.532Z,10.65
2019-04-06T21:05:03.173Z,9.68
2019-04-06T21:07:33.415Z,10.48
2019-04-06T21:10:03.407Z,9.90
2019-04-06T21:12:33.382Z,11.05
2019-04-06T21:15:15.020Z,11.20
2019-04-06T21:17:35.496Z,9.80
2019-04-06T21:20:06.287Z,11.28
2019-04-06T21:22:36.291Z,10.30
2019-04-06T21:25:06.158Z,10.93
2019-04-06T21:27:36.182Z,11.15
2019-04-06T21:30:08.185Z,12.53
2019-04-06T21:32:38.563Z,10.93
2019-04-06T21:35:09.910Z,11.95
2019-04-06T21:37:39.998Z,13.45
2019-04-06T21:40:10.628Z,12.15
2019-04-06T21:42:40.892Z,11.85
2019-04-06T21:45:10.988Z,11.88
2019-04-06T21:47:40.870Z,15.25
2019-04-06T21:50:11.116Z,11.83
2019-04-06T21:52:41.335Z,12.80
2019-04-06T21:55:13.899Z,12.73
2019-04-06T21:57:44.027Z,12.63
2019-04-06T22:00:17.723Z,13.90
2019-04-06T22:02:47.959Z,14.03
2019-04-06T22:05:18.042Z,13.80
2019-04-06T22:07:52.180Z,13.48
2019-04-06T22:10:20.808Z,13.53
2019-04-06T22:12:50.978Z,13.00
2019-04-06T22:15:22.973Z,12.98
2019-04-06T22:17:53.230Z,12.73
2019-04-06T22:20:23.345Z,13.03
2019-04-06T22:22:53.601Z,12.55
2019-04-06T22:25:23.474Z,12.65
2019-04-06T22:27:53.191Z,12.43
2019-04-06T22:30:22.955Z,13.72
2019-04-06T22:32:52.855Z,13.40
2019-04-06T22:35:23.065Z,15.30
2019-04-06T22:37:54.673Z,14.98
2019-04-06T22:40:24.674Z,15.18
2019-04-06T22:42:54.592Z,14.75
2019-04-06T22:45:25.501Z,14.90
2019-04-06T22:47:55.890Z,16.02
2019-04-06T22:50:25.812Z,15.93
2019-04-06T22:52:56.055Z,14.55
2019-04-06T22:55:26.978Z,17.15
2019-04-06T22:57:57.028Z,15.72
2019-04-06T23:00:38.674Z,15.43
2019-04-06T23:03:23.015Z,16.75
2019-04-06T23:05:56.206Z,16.07
2019-04-06T23:08:26.260Z,17.00
2019-04-06T23:10:56.826Z,17.87
2019-04-06T23:13:26.908Z,17.92
2019-04-06T23:15:56.794Z,15.80
2019-04-06T23:18:26.565Z,16.97
2019-04-06T23:20:56.507Z,16.07
2019-04-06T23:23:26.594Z,18.40
2019-04-06T23:25:56.767Z,15.13
2019-04-06T23:28:27.702Z,15.90
2019-04-06T23:30:57.435Z,17.52
2019-04-06T23:33:27.148Z,16.60
2019-04-06T23:35:57.248Z,16.15
2019-04-06T23:38:27.206Z,17.23
2019-04-06T23:40:57.006Z,18.70
2019-04-06T23:43:26.829Z,17.90
2019-04-06T23:45:57.119Z,16.52
2019-04-06T23:48:26.854Z,17.50
2019-04-06T23:50:56.628Z,16.25
2019-04-06T23:53:26.523Z,16.02
2019-04-06T23:55:56.351Z,16.10
2019-04-06T23:58:25.990Z,16.48
